VTUI

Details ICAO VTUI (SNO)
Name Sakon Nakhon Aero
Region Thailand
Timezone Asia/Bangkok (UTC+7.0)
Plans Departing 5
Arriving 11
Stats Elevation 529 ft / 161 m (AMSL)
Location 17.195140° 104.118626°
Runways 1
Magnetic Variation 0.954° W
Sunrise 2018-05-21 22:31:32 UTC / 2018-05-22 05:31:32 Local
Sunset 2018-05-22 11:31:39 UTC / 2018-05-22 18:31:39 Local
Advertisement - Login to hide

Runways

ID Width Length Bearing (true) Bearing (mag) Surface Threshold Offset Overrun Length
05 148 ft / 45 m 8,561 ft / 2,609 m 44.83° 45.78° Asphalt 0 ft / 0 m 492 ft / 150 m
23 148 ft / 45 m 8,561 ft / 2,609 m 224.84° 225.79° Asphalt 0 ft / 0 m 492 ft / 150 m

Approach Navaids

Runway Type Ident Frequency Range Bearing (true) Bearing (mag) Slope Elevation
23 Localiser ISKN 110.30 MHz 18 nm / 33 km 224.83° 225.78° - 529 ft / 161 m (AMSL)
23 Glidescope ISKN 110.30 MHz 10 nm / 19 km 224.83° 225.79° 3.00° 526 ft / 160 m (AMSL)
23 DME ISKN 110.30 MHz 18 nm / 33 km - - - 527 ft / 161 m (AMSL)

Map

Weather


0- 5 10 15 20 25 30 35+ Temperature / ° C

Clouds and Precipitation
Forecast for 2018-05-22 12:00 UTC. Updated 3 hours ago

Ground ~20,000 ft ~40,000 ft Winds

METAR

VTUI 221400Z 22004KT 9999 FEW025 29/24 Q1010 NOSIG

TAF

TAF VTUI 221100Z 2212/2312 14004KT 9999 SCT025 TEMPO 2312/2315 5000 TSRA FEW018CB

Frequencies

Tower 119.65 MHz TWR
Approach 123.35 MHz APP
Warning: Do not use this data for real-world aviation or navigation. No guarantee of current accuracy is given.